Tarrant West's Hourly Summary for Tuesday, May 15, 2018
Hour Temp
(f)
RH
(%)
Solar Rad.
(MJ/m2)
Rainfall
(in)
Wind
(mph)
5/15/2018 12:00 AM 77 68 19.95 0 0
5/15/2018 1:00 AM 76 70 19.95 0 0
5/15/2018 2:00 AM 75 72 19.95 0 0
5/15/2018 3:00 AM 74 75 19.95 0 0
5/15/2018 4:00 AM 74 76 19.95 0 0
5/15/2018 5:00 AM 74 78 19.95 0 0
5/15/2018 6:00 AM 72 81 19.95 0 0
5/15/2018 7:00 AM 72 81 19.95 0 0
5/15/2018 8:00 AM 74 79 19.95 0 0
5/15/2018 9:00 AM 75 76 19.95 0 0
5/15/2018 10:00 AM 77 72 19.95 0 0
5/15/2018 11:00 AM 81 62 11.43 0 15.88
5/15/2018 12:00 PM 82 61 2.41 0 16.11
5/15/2018 1:00 PM 84 59 3.22 0 18.06
5/15/2018 2:00 PM 84 59 2.63 0 23.66
5/15/2018 3:00 PM 82 59 0.75 0 21.09
5/15/2018 4:00 PM 80 64 0.22 0 23.04
5/15/2018 5:00 PM 80 62 0.21 0 18.96
5/15/2018 6:00 PM 81 62 1.01 0 21.09
5/15/2018 7:00 PM 80 60 0.32 0 16.72
5/15/2018 8:00 PM 78 62 0.03 0 15.88
5/15/2018 9:00 PM 77 65 0 0 10.23
5/15/2018 10:00 PM 76 67 0 0 10.23
5/15/2018 11:00 PM 74 71 0 0 7.66
Data Summary 77 68 241.68 0.00 9.11